createdAt,value
2022-12-31T00:01:30.746Z,5.33
2022-12-31T00:03:59.687Z,5.32
2022-12-31T00:06:33.175Z,5.37
2022-12-31T00:09:04.841Z,5.37
2022-12-31T00:11:35.565Z,5.42
2022-12-31T00:14:04.766Z,5.44
2022-12-31T00:16:37.115Z,5.47
2022-12-31T00:19:07.380Z,5.51
2022-12-31T00:21:39.011Z,5.50
2022-12-31T00:24:09.551Z,5.57
2022-12-31T00:26:39.265Z,5.58
2022-12-31T00:29:08.530Z,5.55
2022-12-31T00:31:39.768Z,5.57
2022-12-31T00:34:09.211Z,5.58
2022-12-31T00:36:40.346Z,5.66
2022-12-31T00:39:11.879Z,5.60
2022-12-31T00:41:43.312Z,5.63
2022-12-31T00:44:13.982Z,5.64
2022-12-31T00:49:12.708Z,5.73
2022-12-31T00:51:43.375Z,5.74
2022-12-31T00:54:12.483Z,5.74
2022-12-31T00:56:41.789Z,5.79
2022-12-31T00:59:10.850Z,5.77
2022-12-31T01:01:41.223Z,5.73
2022-12-31T01:04:12.455Z,5.79
2022-12-31T01:06:43.738Z,5.79
2022-12-31T01:09:14.092Z,5.85
2022-12-31T01:11:43.545Z,5.84
2022-12-31T01:14:14.492Z,5.87
2022-12-31T01:16:45.749Z,5.90
2022-12-31T01:19:17.823Z,5.96
2022-12-31T01:21:50.299Z,5.98
2022-12-31T01:24:20.062Z,5.95
2022-12-31T01:26:49.242Z,6.00
2022-12-31T01:29:18.197Z,5.97
2022-12-31T01:31:47.694Z,5.96
2022-12-31T01:34:16.645Z,6.02
2022-12-31T01:36:48.130Z,6.04
2022-12-31T01:39:17.268Z,6.10
2022-12-31T01:41:48.458Z,6.09
2022-12-31T01:44:49.311Z,6.06
2022-12-31T01:47:23.051Z,6.11
2022-12-31T01:49:55.812Z,6.14
2022-12-31T01:52:31.901Z,6.12
2022-12-31T01:55:07.201Z,6.16
2022-12-31T01:57:38.732Z,6.13
2022-12-31T02:00:10.035Z,6.14
2022-12-31T02:02:39.556Z,6.18
2022-12-31T02:05:17.642Z,6.22
2022-12-31T02:07:49.967Z,6.21
2022-12-31T02:10:19.315Z,6.21
2022-12-31T02:12:49.273Z,6.24
2022-12-31T02:15:18.786Z,6.20
2022-12-31T02:17:57.359Z,6.22
2022-12-31T02:21:18.161Z,6.31
2022-12-31T02:24:34.048Z,6.32
2022-12-31T02:27:08.156Z,6.27
2022-12-31T02:30:08.838Z,6.26
2022-12-31T02:32:49.612Z,6.27
2022-12-31T02:35:26.028Z,6.29
2022-12-31T02:38:00.322Z,6.29
2022-12-31T02:40:30.034Z,6.27
2022-12-31T02:42:59.051Z,6.32
2022-12-31T02:45:35.540Z,6.29
2022-12-31T02:48:17.240Z,6.36
2022-12-31T02:50:56.514Z,6.38
2022-12-31T02:53:53.294Z,6.40
2022-12-31T02:56:28.743Z,6.42
2022-12-31T02:59:23.743Z,6.42
2022-12-31T03:02:16.850Z,6.41
2022-12-31T03:04:50.197Z,6.44
2022-12-31T03:07:22.785Z,6.47
2022-12-31T03:09:52.046Z,6.50
2022-12-31T03:12:40.776Z,6.47
2022-12-31T03:15:20.280Z,6.49
2022-12-31T03:17:58.368Z,6.52
2022-12-31T03:20:48.515Z,6.55
2022-12-31T03:23:22.902Z,6.55
2022-12-31T03:25:51.312Z,6.57
2022-12-31T03:28:23.524Z,6.65
2022-12-31T03:31:21.249Z,6.69
2022-12-31T03:33:52.027Z,6.66
2022-12-31T03:36:21.126Z,6.72
2022-12-31T03:38:52.833Z,6.81
2022-12-31T03:41:22.208Z,6.84
2022-12-31T03:43:51.458Z,6.79
2022-12-31T03:46:20.521Z,6.85
2022-12-31T03:48:51.253Z,6.85
2022-12-31T03:51:20.428Z,6.91
2022-12-31T03:53:49.701Z,6.90
2022-12-31T03:56:18.823Z,6.91
2022-12-31T03:58:48.440Z,6.87
2022-12-31T04:01:17.660Z,6.91
2022-12-31T04:03:46.966Z,6.95
2022-12-31T04:06:17.546Z,6.97
2022-12-31T04:08:46.939Z,6.96
2022-12-31T04:11:20.685Z,7.04
2022-12-31T04:13:50.596Z,7.01
2022-12-31T04:16:19.709Z,7.02
2022-12-31T04:18:49.087Z,7.03
2022-12-31T04:21:19.583Z,7.03
2022-12-31T04:23:48.829Z,7.04
2022-12-31T04:26:17.877Z,7.06
2022-12-31T04:28:47.136Z,7.09
2022-12-31T04:31:16.175Z,7.11
2022-12-31T04:33:45.449Z,7.15
2022-12-31T04:36:14.757Z,7.17
2022-12-31T04:38:46.288Z,7.19
2022-12-31T04:41:18.550Z,7.22
2022-12-31T04:43:49.729Z,7.24
2022-12-31T04:46:21.079Z,7.23
2022-12-31T04:48:50.667Z,7.23
2022-12-31T04:51:19.659Z,7.27
2022-12-31T04:53:50.785Z,7.30
2022-12-31T04:56:21.804Z,7.30
2022-12-31T04:58:51.875Z,7.27
2022-12-31T05:01:21.210Z,7.33
2022-12-31T05:03:51.343Z,7.34
2022-12-31T05:06:23.399Z,7.38
2022-12-31T05:08:54.307Z,7.40
2022-12-31T05:11:23.402Z,7.41
2022-12-31T05:13:52.731Z,7.42
2022-12-31T05:16:21.722Z,7.46
2022-12-31T05:18:51.046Z,7.44
2022-12-31T05:21:22.202Z,7.44
2022-12-31T05:23:53.160Z,7.45
2022-12-31T05:26:22.215Z,7.47
2022-12-31T05:28:51.509Z,7.49
2022-12-31T05:31:20.669Z,7.51
2022-12-31T05:33:50.276Z,7.53
2022-12-31T05:36:19.337Z,7.55
2022-12-31T05:38:48.743Z,7.60
2022-12-31T05:41:19.120Z,7.60
2022-12-31T05:43:48.518Z,7.64
2022-12-31T05:46:17.529Z,7.66
2022-12-31T05:48:46.971Z,7.66
2022-12-31T05:51:16.097Z,7.72
2022-12-31T05:53:45.499Z,7.69
2022-12-31T05:56:14.614Z,7.75
2022-12-31T05:58:45.270Z,7.70
2022-12-31T06:01:14.419Z,7.74
2022-12-31T06:03:43.771Z,7.75
2022-12-31T06:06:12.987Z,7.80
2022-12-31T06:08:42.365Z,7.82
2022-12-31T06:11:11.440Z,7.83
2022-12-31T06:13:40.685Z,7.83
2022-12-31T06:16:12.159Z,7.86
2022-12-31T06:18:41.615Z,7.91
2022-12-31T06:21:10.619Z,7.92
2022-12-31T06:23:42.297Z,7.89
2022-12-31T06:26:11.434Z,7.93
2022-12-31T06:28:40.739Z,7.89
2022-12-31T06:31:14.024Z,7.91
2022-12-31T06:33:43.982Z,7.96
2022-12-31T06:36:16.382Z,8.00
2022-12-31T06:38:46.878Z,8.02
2022-12-31T06:41:18.318Z,7.99
2022-12-31T06:43:47.903Z,8.00
2022-12-31T06:46:19.566Z,8.00
2022-12-31T06:48:49.009Z,8.06
2022-12-31T06:51:20.291Z,8.08
2022-12-31T06:53:51.605Z,8.13
2022-12-31T06:56:26.492Z,8.08
2022-12-31T06:59:00.938Z,8.13
2022-12-31T07:01:36.327Z,8.11
2022-12-31T07:04:21.642Z,8.11
2022-12-31T07:06:56.187Z,8.15
2022-12-31T07:09:34.253Z,8.19
2022-12-31T07:12:10.833Z,8.25
2022-12-31T07:14:47.494Z,8.23
2022-12-31T07:17:33.036Z,8.24
2022-12-31T07:20:07.999Z,8.23
2022-12-31T07:22:37.869Z,8.24
2022-12-31T07:25:08.701Z,8.26
2022-12-31T07:27:54.152Z,8.31
2022-12-31T07:30:29.961Z,8.28
2022-12-31T07:33:26.856Z,8.32
2022-12-31T07:36:07.286Z,8.32
2022-12-31T07:38:46.589Z,8.38
2022-12-31T07:41:19.172Z,8.48
2022-12-31T07:44:01.463Z,8.48
2022-12-31T07:46:37.205Z,8.43
2022-12-31T07:49:11.372Z,8.53
2022-12-31T07:51:41.634Z,8.53
2022-12-31T07:54:14.224Z,8.57
2022-12-31T07:56:44.601Z,8.58
2022-12-31T07:59:29.021Z,8.59
2022-12-31T08:02:08.572Z,8.62
2022-12-31T08:04:50.605Z,8.69
2022-12-31T08:07:31.199Z,8.75
2022-12-31T08:10:12.525Z,8.80
2022-12-31T08:12:46.970Z,8.79
2022-12-31T08:15:18.368Z,8.88
2022-12-31T08:17:48.335Z,8.89
2022-12-31T08:20:19.181Z,8.91
2022-12-31T08:23:12.311Z,8.87
2022-12-31T08:26:01.401Z,8.89
2022-12-31T08:29:00.156Z,8.93
2022-12-31T08:31:38.105Z,8.95
2022-12-31T08:34:17.264Z,8.98
2022-12-31T08:36:56.403Z,9.00
2022-12-31T08:39:47.966Z,8.98
2022-12-31T08:42:26.344Z,9.04
2022-12-31T08:45:12.810Z,9.06
2022-12-31T08:47:55.053Z,9.07
2022-12-31T08:50:28.066Z,9.06
2022-12-31T08:52:59.529Z,9.14
2022-12-31T08:55:29.562Z,9.15
2022-12-31T08:58:13.697Z,9.20
2022-12-31T09:00:44.006Z,9.21
2022-12-31T09:03:31.708Z,9.23
2022-12-31T09:06:09.549Z,9.25
2022-12-31T09:08:48.643Z,9.30
2022-12-31T09:11:24.327Z,9.29
2022-12-31T09:14:18.730Z,9.32
2022-12-31T09:16:57.635Z,9.38
2022-12-31T09:19:26.774Z,9.37
2022-12-31T09:21:56.663Z,9.39
2022-12-31T09:24:27.389Z,9.43
2022-12-31T09:27:06.515Z,9.44
2022-12-31T09:29:46.601Z,9.48
2022-12-31T09:32:27.016Z,9.50
2022-12-31T09:35:03.965Z,9.54
2022-12-31T09:37:45.173Z,9.56
2022-12-31T09:40:44.873Z,9.55
2022-12-31T09:43:46.224Z,9.58
2022-12-31T09:46:54.627Z,9.59
2022-12-31T09:50:06.988Z,9.60
2022-12-31T09:52:51.473Z,9.62
2022-12-31T09:55:35.549Z,9.65
2022-12-31T09:58:21.704Z,9.64
2022-12-31T10:00:57.580Z,9.64
2022-12-31T10:03:41.331Z,9.66
2022-12-31T10:06:34.229Z,9.68
2022-12-31T10:09:38.312Z,9.69
2022-12-31T10:12:34.966Z,9.71
2022-12-31T10:15:31.523Z,9.71
2022-12-31T10:18:12.879Z,9.70
2022-12-31T10:20:56.021Z,9.72
2022-12-31T10:23:53.534Z,9.73
2022-12-31T10:26:32.915Z,9.73
2022-12-31T10:29:10.837Z,9.71
2022-12-31T10:31:48.113Z,9.67
2022-12-31T10:34:27.072Z,9.72
2022-12-31T10:36:59.188Z,9.72
2022-12-31T10:39:46.521Z,9.69
2022-12-31T10:42:45.089Z,9.71
2022-12-31T10:45:48.041Z,9.72
2022-12-31T10:48:45.089Z,9.75
2022-12-31T10:52:00.263Z,9.76
2022-12-31T10:54:58.960Z,9.81
2022-12-31T10:58:04.705Z,9.70
2022-12-31T11:00:41.746Z,9.69
2022-12-31T11:03:53.152Z,9.69
2022-12-31T11:07:00.232Z,9.74
2022-12-31T11:10:10.943Z,9.68
2022-12-31T11:13:15.531Z,9.70
2022-12-31T11:16:14.777Z,9.68
2022-12-31T11:18:53.434Z,9.67
2022-12-31T11:21:41.574Z,9.72
2022-12-31T11:24:25.709Z,9.78
2022-12-31T11:27:08.796Z,9.79
2022-12-31T11:30:00.991Z,9.79
2022-12-31T11:32:50.965Z,9.79
2022-12-31T11:35:33.235Z,9.85
2022-12-31T11:38:16.318Z,9.89
2022-12-31T11:41:01.058Z,9.93
2022-12-31T11:43:37.370Z,9.90
2022-12-31T11:46:29.529Z,9.90
2022-12-31T11:49:13.825Z,9.91
2022-12-31T11:52:21.779Z,9.93
2022-12-31T11:55:24.534Z,9.93
2022-12-31T11:57:55.853Z,10.00
2022-12-31T12:00:28.154Z,10.01
2022-12-31T12:03:01.080Z,10.03
2022-12-31T12:05:31.842Z,10.09
2022-12-31T12:08:02.348Z,10.16
2022-12-31T12:10:39.811Z,10.16
2022-12-31T12:13:20.702Z,10.21
2022-12-31T12:15:52.119Z,10.24
2022-12-31T12:18:31.540Z,10.26
2022-12-31T12:21:07.968Z,10.27
2022-12-31T12:23:37.542Z,10.27
2022-12-31T12:26:08.021Z,10.27
2022-12-31T12:28:48.015Z,10.29
2022-12-31T12:31:21.942Z,10.29
2022-12-31T12:33:53.005Z,10.29
2022-12-31T12:36:23.023Z,10.27
2022-12-31T12:39:03.544Z,10.35
2022-12-31T12:41:33.380Z,10.35
2022-12-31T12:44:09.495Z,10.35
2022-12-31T12:46:48.305Z,10.35
2022-12-31T12:49:25.568Z,10.37
2022-12-31T12:52:23.280Z,10.36
2022-12-31T12:55:06.218Z,10.36
2022-12-31T12:57:47.381Z,10.38
2022-12-31T13:00:25.061Z,10.41
2022-12-31T13:03:16.538Z,10.42
2022-12-31T13:05:57.867Z,10.42
2022-12-31T13:08:44.888Z,10.49
2022-12-31T13:11:28.766Z,10.56
2022-12-31T13:14:07.394Z,10.62
2022-12-31T13:16:46.508Z,10.64
2022-12-31T13:19:24.690Z,10.69
2022-12-31T13:22:02.647Z,10.70
2022-12-31T13:24:47.643Z,10.74
2022-12-31T13:27:23.990Z,10.77
2022-12-31T13:29:56.269Z,10.83
2022-12-31T13:32:40.744Z,10.82
2022-12-31T13:35:25.806Z,10.82
2022-12-31T13:38:05.427Z,10.89
2022-12-31T13:40:46.991Z,10.96
2022-12-31T13:43:22.137Z,10.97
2022-12-31T13:46:02.918Z,11.00
2022-12-31T13:48:38.543Z,10.98
2022-12-31T13:51:15.064Z,11.04
2022-12-31T13:53:50.361Z,11.05
2022-12-31T13:56:24.367Z,11.07
2022-12-31T13:58:59.055Z,11.08
2022-12-31T14:01:34.610Z,11.09
2022-12-31T14:04:12.988Z,11.15
2022-12-31T14:06:47.263Z,11.18
2022-12-31T14:09:21.627Z,11.18
2022-12-31T14:12:04.003Z,11.26
2022-12-31T14:14:44.278Z,11.30
2022-12-31T14:17:21.941Z,11.28
2022-12-31T14:20:03.811Z,11.35
2022-12-31T14:22:44.412Z,11.40
2022-12-31T14:25:22.313Z,11.38
2022-12-31T14:27:53.497Z,11.46
2022-12-31T14:30:25.461Z,11.53
2022-12-31T14:33:09.343Z,11.59
2022-12-31T14:36:10.330Z,11.61
2022-12-31T14:38:53.429Z,11.66
2022-12-31T14:41:35.587Z,11.71
2022-12-31T14:44:29.124Z,11.74
2022-12-31T14:47:13.793Z,11.75
2022-12-31T14:49:51.864Z,11.81
2022-12-31T14:52:30.650Z,11.86
2022-12-31T14:55:04.645Z,11.91
2022-12-31T14:58:09.733Z,11.95
2022-12-31T15:00:32.347Z,11.96
2022-12-31T15:03:05.699Z,11.98
2022-12-31T15:05:37.333Z,12.00
2022-12-31T15:08:32.220Z,12.08
2022-12-31T15:11:23.844Z,12.09
2022-12-31T15:14:09.771Z,12.07
2022-12-31T15:16:50.528Z,12.13
2022-12-31T15:19:50.789Z,12.12
2022-12-31T15:22:36.740Z,12.09
2022-12-31T15:25:23.072Z,12.14
2022-12-31T15:27:53.311Z,12.14
2022-12-31T15:30:43.093Z,12.20
2022-12-31T15:33:23.864Z,12.24
2022-12-31T15:35:55.181Z,12.25
2022-12-31T15:38:37.425Z,12.25
2022-12-31T15:41:29.086Z,12.26
2022-12-31T15:44:03.348Z,12.35
2022-12-31T15:46:38.664Z,12.42
2022-12-31T15:49:15.894Z,12.47
2022-12-31T15:51:49.161Z,12.46
2022-12-31T15:54:25.477Z,12.48
2022-12-31T15:56:56.409Z,12.50
2022-12-31T15:59:27.986Z,12.54
2022-12-31T16:01:58.568Z,12.57
2022-12-31T16:04:29.908Z,12.55
2022-12-31T16:07:02.064Z,12.59
2022-12-31T16:09:34.190Z,12.66
2022-12-31T16:12:11.439Z,12.65
2022-12-31T16:14:46.027Z,12.67
2022-12-31T16:17:29.645Z,12.70
2022-12-31T16:19:59.580Z,12.72
2022-12-31T16:22:31.119Z,12.74
2022-12-31T16:25:29.647Z,12.76
2022-12-31T16:27:53.557Z,12.81
2022-12-31T16:30:26.547Z,12.83
2022-12-31T16:33:00.079Z,12.83
2022-12-31T16:35:31.757Z,12.88
2022-12-31T16:38:12.048Z,12.89
2022-12-31T16:40:42.106Z,12.92
2022-12-31T16:43:30.530Z,12.97
2022-12-31T16:46:09.857Z,12.99
2022-12-31T16:48:40.541Z,13.03
2022-12-31T16:51:18.144Z,13.07
2022-12-31T16:53:48.226Z,13.11
2022-12-31T16:56:26.118Z,13.13
2022-12-31T16:59:01.911Z,13.18
2022-12-31T17:01:35.428Z,13.18
2022-12-31T17:04:10.436Z,13.18
2022-12-31T17:06:39.973Z,13.23
2022-12-31T17:09:15.245Z,13.21
2022-12-31T17:11:48.256Z,13.23
2022-12-31T17:14:20.277Z,13.23
2022-12-31T17:17:02.792Z,13.25
2022-12-31T17:19:42.059Z,13.25
2022-12-31T17:22:17.362Z,13.19
2022-12-31T17:24:50.124Z,13.24
2022-12-31T17:27:20.055Z,13.28
2022-12-31T17:29:52.252Z,13.30
2022-12-31T17:32:31.273Z,13.33
2022-12-31T17:35:00.864Z,13.33
2022-12-31T17:37:31.012Z,13.34
2022-12-31T17:40:25.015Z,13.33
2022-12-31T17:42:51.716Z,13.35
2022-12-31T17:45:23.471Z,13.34
2022-12-31T17:47:55.740Z,13.31
2022-12-31T17:50:27.733Z,13.34
2022-12-31T17:53:00.705Z,13.36
2022-12-31T17:55:30.528Z,13.34
2022-12-31T17:58:03.672Z,13.33
2022-12-31T18:00:35.199Z,13.40
2022-12-31T18:03:04.751Z,13.40
2022-12-31T18:05:33.783Z,13.42
2022-12-31T18:08:02.961Z,13.46
2022-12-31T18:10:36.859Z,13.47
2022-12-31T18:13:07.001Z,13.46
2022-12-31T18:15:37.741Z,13.48
2022-12-31T18:18:24.307Z,13.51
2022-12-31T18:20:58.059Z,13.48
2022-12-31T18:23:29.580Z,13.48
2022-12-31T18:25:58.927Z,13.50
2022-12-31T18:28:28.293Z,13.45
2022-12-31T18:30:58.932Z,13.44
2022-12-31T18:33:28.641Z,13.41
2022-12-31T18:36:08.798Z,13.40
2022-12-31T18:38:39.307Z,13.39
2022-12-31T18:41:13.777Z,13.39
2022-12-31T18:43:43.140Z,13.32
2022-12-31T18:46:15.875Z,13.35
2022-12-31T18:48:45.619Z,13.32
2022-12-31T18:51:16.746Z,13.32
2022-12-31T18:53:46.605Z,13.34
2022-12-31T18:56:17.642Z,13.29
2022-12-31T18:58:47.917Z,13.30
2022-12-31T19:01:30.066Z,13.22
2022-12-31T19:04:00.924Z,13.29
2022-12-31T19:06:32.053Z,13.26
2022-12-31T19:09:01.419Z,13.26
2022-12-31T19:11:32.961Z,13.27
2022-12-31T19:14:02.756Z,13.31
2022-12-31T19:16:32.912Z,13.29
2022-12-31T19:19:08.321Z,13.27
2022-12-31T19:21:37.925Z,13.29
2022-12-31T19:24:12.857Z,13.29
2022-12-31T19:26:43.716Z,13.30
2022-12-31T19:29:17.860Z,13.30
2022-12-31T19:31:48.786Z,13.30
2022-12-31T19:34:18.265Z,13.34
2022-12-31T19:36:47.835Z,13.35
2022-12-31T19:39:19.389Z,13.29
2022-12-31T19:41:54.803Z,13.32
2022-12-31T19:44:28.060Z,13.33
2022-12-31T19:46:58.567Z,13.32
2022-12-31T19:49:28.027Z,13.32
2022-12-31T19:51:57.014Z,13.35
2022-12-31T19:54:26.348Z,13.35
2022-12-31T19:56:55.749Z,13.35
2022-12-31T19:59:25.127Z,13.36
2022-12-31T20:01:54.733Z,13.33
2022-12-31T20:04:25.543Z,13.31
2022-12-31T20:06:55.111Z,13.33
2022-12-31T20:09:24.353Z,13.36
2022-12-31T20:11:53.430Z,13.38
2022-12-31T20:14:22.692Z,13.33
2022-12-31T20:16:52.680Z,13.35
2022-12-31T20:19:22.106Z,13.34
2022-12-31T20:21:53.307Z,13.35
2022-12-31T20:24:22.701Z,13.34
2022-12-31T20:26:51.673Z,13.34
2022-12-31T20:29:21.004Z,13.34
2022-12-31T20:31:49.976Z,13.32
2022-12-31T20:34:19.369Z,13.33
2022-12-31T20:36:48.555Z,13.25
2022-12-31T20:39:19.229Z,13.27
2022-12-31T20:41:49.356Z,13.25
2022-12-31T20:44:18.698Z,13.24
2022-12-31T20:46:47.721Z,13.20
2022-12-31T20:49:23.708Z,13.17
2022-12-31T20:52:06.029Z,13.15
2022-12-31T20:54:37.308Z,13.14
2022-12-31T20:57:06.480Z,13.16
2022-12-31T20:59:35.731Z,13.18
2022-12-31T21:02:20.890Z,13.19
2022-12-31T21:04:50.797Z,13.14
2022-12-31T21:07:20.034Z,13.14
2022-12-31T21:09:50.808Z,13.14
2022-12-31T21:12:37.287Z,13.14
2022-12-31T21:15:07.689Z,13.14
2022-12-31T21:17:38.748Z,13.12
2022-12-31T21:20:08.659Z,13.10
2022-12-31T21:22:38.249Z,13.10
2022-12-31T21:25:12.041Z,13.10
2022-12-31T21:27:41.153Z,13.08
2022-12-31T21:30:20.390Z,13.07
2022-12-31T21:32:49.754Z,13.06
2022-12-31T21:38:10.664Z,13.03
2022-12-31T21:40:41.536Z,13.04
2022-12-31T21:43:10.510Z,12.99
2022-12-31T21:45:40.094Z,13.01
2022-12-31T21:48:21.581Z,12.99
2022-12-31T21:50:52.891Z,13.01
2022-12-31T21:53:27.894Z,12.97
2022-12-31T21:56:14.559Z,13.06
2022-12-31T21:58:45.919Z,13.06
2022-12-31T22:01:37.354Z,13.09
2022-12-31T22:04:28.183Z,13.07
2022-12-31T22:06:57.520Z,13.11
2022-12-31T22:09:26.523Z,13.12
2022-12-31T22:11:57.292Z,13.18
2022-12-31T22:14:26.378Z,13.22
2022-12-31T22:16:55.658Z,13.24
2022-12-31T22:19:24.857Z,13.27
2022-12-31T22:21:54.137Z,13.24
2022-12-31T22:24:23.266Z,13.25
2022-12-31T22:26:55.615Z,13.25
2022-12-31T22:29:26.292Z,13.28
2022-12-31T22:32:01.054Z,13.29
2022-12-31T22:34:30.312Z,13.26
2022-12-31T22:37:08.960Z,13.27
2022-12-31T22:39:48.816Z,13.28
2022-12-31T22:42:18.109Z,13.26
2022-12-31T22:44:48.601Z,13.24
2022-12-31T22:47:18.111Z,13.22
2022-12-31T22:49:47.191Z,13.30
2022-12-31T22:52:16.451Z,13.29
2022-12-31T22:54:45.559Z,13.27
2022-12-31T22:57:19.973Z,13.25
2022-12-31T22:59:51.405Z,13.25
2022-12-31T23:02:20.765Z,13.25
2022-12-31T23:04:49.808Z,13.26
2022-12-31T23:07:19.390Z,13.24
2022-12-31T23:10:05.960Z,13.28
2022-12-31T23:12:35.609Z,13.27
2022-12-31T23:15:24.012Z,13.24
2022-12-31T23:18:10.686Z,13.24
2022-12-31T23:20:57.566Z,13.27
2022-12-31T23:23:26.913Z,13.24
2022-12-31T23:26:02.732Z,13.20
2022-12-31T23:28:32.141Z,13.22
2022-12-31T23:31:07.787Z,13.27
2022-12-31T23:33:37.238Z,13.23
2022-12-31T23:36:08.075Z,13.22
2022-12-31T23:38:37.469Z,13.21
2022-12-31T23:41:13.655Z,13.23
2022-12-31T23:43:42.986Z,13.22
2022-12-31T23:46:14.038Z,13.19
2022-12-31T23:48:43.641Z,13.20
2022-12-31T23:51:12.610Z,13.17
2022-12-31T23:53:42.020Z,13.14
2022-12-31T23:56:19.281Z,13.18
2022-12-31T23:58:55.685Z,13.15
